sensor_id;sensor_type;location;lat;lon;timestamp;pressure;altitude;pressure_sealevel;temperature;humidity
53940;BME280;39850;43.324;21.916;2022-09-21T00:30:28;995.0;;;9.1;84.0
53940;BME280;39850;43.324;21.916;2022-09-21T00:35:09;995.0;;;9.1;84.0
53940;BME280;39850;43.324;21.916;2022-09-21T00:39:47;995.0;;;9.0;83.0
53940;BME280;39850;43.324;21.916;2022-09-21T00:44:33;995.0;;;9.0;83.0
53940;BME280;39850;43.324;21.916;2022-09-21T00:49:12;995.0;;;9.1;84.0
53940;BME280;39850;43.324;21.916;2022-09-21T00:54:18;995.0;;;9.1;84.0
53940;BME280;39850;43.324;21.916;2022-09-21T00:58:58;995.0;;;9.1;84.0
53940;BME280;39850;43.324;21.916;2022-09-21T01:03:35;995.0;;;9.0;83.0
53940;BME280;39850;43.324;21.916;2022-09-21T01:08:20;995.0;;;9.0;83.0
53940;BME280;39850;43.324;21.916;2022-09-21T01:13:53;995.0;;;9.1;84.0
53940;BME280;39850;43.324;21.916;2022-09-21T01:54:29;995.0;;;9.0;84.0
53940;BME280;39850;43.324;21.916;2022-09-21T01:59:37;995.0;;;9.0;84.0
53940;BME280;39850;43.324;21.916;2022-09-21T02:04:18;995.0;;;9.0;84.0
53940;BME280;39850;43.324;21.916;2022-09-21T02:08:57;995.0;;;9.0;84.0
53940;BME280;39850;43.324;21.916;2022-09-21T02:13:49;994.0;;;9.0;83.0
53940;BME280;39850;43.324;21.916;2022-09-21T02:19:11;994.0;;;9.0;83.0
53940;BME280;39850;43.324;21.916;2022-09-21T02:24:34;994.0;;;8.9;83.0
53940;BME280;39850;43.324;21.916;2022-09-21T02:29:46;994.0;;;8.9;83.0
53940;BME280;39850;43.324;21.916;2022-09-21T02:34:52;994.0;;;8.9;83.0
53940;BME280;39850;43.324;21.916;2022-09-21T03:13:25;995.0;;;8.9;83.0
53940;BME280;39850;43.324;21.916;2022-09-21T03:18:08;995.0;;;8.9;83.0
53940;BME280;39850;43.324;21.916;2022-09-21T03:22:45;995.0;;;8.9;83.0
53940;BME280;39850;43.324;21.916;2022-09-21T03:27:21;995.0;;;8.9;83.0
53940;BME280;39850;43.324;21.916;2022-09-21T03:31:58;995.0;;;8.9;83.0
53940;BME280;39850;43.324;21.916;2022-09-21T03:36:35;995.0;;;8.9;83.0
53940;BME280;39850;43.324;21.916;2022-09-21T03:41:12;995.0;;;9.0;84.0
53940;BME280;39850;43.324;21.916;2022-09-21T03:45:49;995.0;;;9.0;84.0
53940;BME280;39850;43.324;21.916;2022-09-21T03:50:28;995.0;;;9.0;85.0
53940;BME280;39850;43.324;21.916;2022-09-21T03:55:10;995.0;;;9.0;85.0
53940;BME280;39850;43.324;21.916;2022-09-21T04:32:05;995.0;;;9.1;85.0
53940;BME280;39850;43.324;21.916;2022-09-21T04:36:42;995.0;;;9.1;85.0
53940;BME280;39850;43.324;21.916;2022-09-21T04:41:19;995.0;;;9.0;85.0
53940;BME280;39850;43.324;21.916;2022-09-21T04:45:56;995.0;;;9.0;85.0
53940;BME280;39850;43.324;21.916;2022-09-21T04:50:33;995.0;;;8.9;85.0
53940;BME280;39850;43.324;21.916;2022-09-21T04:55:10;995.0;;;8.9;85.0
53940;BME280;39850;43.324;21.916;2022-09-21T04:59:47;995.0;;;8.9;85.0
53940;BME280;39850;43.324;21.916;2022-09-21T05:04:23;995.0;;;8.9;85.0
53940;BME280;39850;43.324;21.916;2022-09-21T05:09:01;995.0;;;8.9;85.0
53940;BME280;39850;43.324;21.916;2022-09-21T05:13:39;995.0;;;8.9;85.0
53940;BME280;39850;43.324;21.916;2022-09-21T05:18:16;995.0;;;8.9;85.0
53940;BME280;39850;43.324;21.916;2022-09-21T05:53:49;995.0;;;8.9;85.0
53940;BME280;39850;43.324;21.916;2022-09-21T06:00:04;995.0;;;8.9;85.0
53940;BME280;39850;43.324;21.916;2022-09-21T06:04:47;995.0;;;9.2;85.0
53940;BME280;39850;43.324;21.916;2022-09-21T06:09:25;995.0;;;9.2;85.0
53940;BME280;39850;43.324;21.916;2022-09-21T06:14:02;995.0;;;9.4;85.0
53940;BME280;39850;43.324;21.916;2022-09-21T06:18:41;995.0;;;9.4;85.0
53940;BME280;39850;43.324;21.916;2022-09-21T06:23:18;995.0;;;9.7;85.0
53940;BME280;39850;43.324;21.916;2022-09-21T06:28:01;995.0;;;9.7;85.0
53940;BME280;39850;43.324;21.916;2022-09-21T06:32:37;995.0;;;10.0;84.0
53940;BME280;39850;43.324;21.916;2022-09-21T06:37:15;995.0;;;10.0;84.0
53940;BME280;39850;43.324;21.916;2022-09-21T07:14:12;996.0;;;9.9;84.0
53940;BME280;39850;43.324;21.916;2022-09-21T07:18:49;996.0;;;9.9;84.0
53940;BME280;39850;43.324;21.916;2022-09-21T07:23:26;996.0;;;10.4;84.0
53940;BME280;39850;43.324;21.916;2022-09-21T07:28:03;996.0;;;10.4;84.0
53940;BME280;39850;43.324;21.916;2022-09-21T07:32:39;996.0;;;10.9;84.0
53940;BME280;39850;43.324;21.916;2022-09-21T07:37:16;996.0;;;10.9;84.0
53940;BME280;39850;43.324;21.916;2022-09-21T07:41:53;996.0;;;11.0;83.0
53940;BME280;39850;43.324;21.916;2022-09-21T07:46:30;996.0;;;11.0;83.0
53940;BME280;39850;43.324;21.916;2022-09-21T07:51:14;996.0;;;11.1;82.0
53940;BME280;39850;43.324;21.916;2022-09-21T07:55:51;996.0;;;11.1;82.0
53940;BME280;39850;43.324;21.916;2022-09-21T08:00:28;996.0;;;11.1;82.0
53940;BME280;39850;43.324;21.916;2022-09-21T08:32:48;996.0;;;12.2;82.0
53940;BME280;39850;43.324;21.916;2022-09-21T08:37:26;996.0;;;12.2;82.0
53940;BME280;39850;43.324;21.916;2022-09-21T08:42:56;996.0;;;13.0;78.0
53940;BME280;39850;43.324;21.916;2022-09-21T08:47:52;996.0;;;13.0;78.0
53940;BME280;39850;43.324;21.916;2022-09-21T08:52:35;996.0;;;13.7;75.0
53940;BME280;39850;43.324;21.916;2022-09-21T08:57:19;996.0;;;13.7;75.0
53940;BME280;39850;43.324;21.916;2022-09-21T09:03:28;996.0;;;13.7;74.0
53940;BME280;39850;43.324;21.916;2022-09-21T09:09:24;996.0;;;13.7;74.0
53940;BME280;39850;43.324;21.916;2022-09-21T09:15:17;996.0;;;13.7;75.0
53940;BME280;39850;43.324;21.916;2022-09-21T09:20:20;996.0;;;13.7;75.0
53940;BME280;39850;43.324;21.916;2022-09-21T09:55:00;995.0;;;14.8;66.0
53940;BME280;39850;43.324;21.916;2022-09-21T10:00:03;995.0;;;14.8;66.0
53940;BME280;39850;43.324;21.916;2022-09-21T10:05:02;995.0;;;15.0;64.0
53940;BME280;39850;43.324;21.916;2022-09-21T10:09:40;995.0;;;15.0;64.0
53940;BME280;39850;43.324;21.916;2022-09-21T10:14:29;995.0;;;15.3;62.0
53940;BME280;39850;43.324;21.916;2022-09-21T10:19:26;995.0;;;15.3;62.0
53940;BME280;39850;43.324;21.916;2022-09-21T10:24:24;995.0;;;15.4;61.0
53940;BME280;39850;43.324;21.916;2022-09-21T10:29:39;995.0;;;15.4;61.0
53940;BME280;39850;43.324;21.916;2022-09-21T10:34:19;995.0;;;15.4;59.0
53940;BME280;39850;43.324;21.916;2022-09-21T10:39:20;995.0;;;15.4;59.0
53940;BME280;39850;43.324;21.916;2022-09-21T11:13:38;994.0;;;14.0;63.0
53940;BME280;39850;43.324;21.916;2022-09-21T11:19:10;994.0;;;14.0;63.0
53940;BME280;39850;43.324;21.916;2022-09-21T11:24:46;994.0;;;14.0;63.0
53940;BME280;39850;43.324;21.916;2022-09-21T11:30:04;994.0;;;14.0;63.0
53940;BME280;39850;43.324;21.916;2022-09-21T11:35:55;994.0;;;14.8;62.0
53940;BME280;39850;43.324;21.916;2022-09-21T11:41:57;994.0;;;15.5;61.0
53940;BME280;39850;43.324;21.916;2022-09-21T11:47:35;994.0;;;15.5;61.0
53940;BME280;39850;43.324;21.916;2022-09-21T11:53:21;994.0;;;15.5;61.0
53940;BME280;39850;43.324;21.916;2022-09-21T11:58:41;994.0;;;15.5;61.0
53940;BME280;39850;43.324;21.916;2022-09-21T12:35:24;994.0;;;12.6;65.0
53940;BME280;39850;43.324;21.916;2022-09-21T12:40:38;994.0;;;12.6;65.0
53940;BME280;39850;43.324;21.916;2022-09-21T12:45:37;994.0;;;13.1;63.0
53940;BME280;39850;43.324;21.916;2022-09-21T12:50:44;994.0;;;13.1;63.0
53940;BME280;39850;43.324;21.916;2022-09-21T12:56:04;994.0;;;13.6;62.0
53940;BME280;39850;43.324;21.916;2022-09-21T13:01:28;994.0;;;13.6;62.0
53940;BME280;39850;43.324;21.916;2022-09-21T13:07:28;994.0;;;14.0;60.0
53940;BME280;39850;43.324;21.916;2022-09-21T13:12:41;994.0;;;14.5;59.0
53940;BME280;39850;43.324;21.916;2022-09-21T13:17:32;994.0;;;14.5;59.0
53940;BME280;39850;43.324;21.916;2022-09-21T13:55:49;994.0;;;14.5;63.0
53940;BME280;39850;43.324;21.916;2022-09-21T14:00:59;994.0;;;14.5;63.0
53940;BME280;39850;43.324;21.916;2022-09-21T14:05:52;994.0;;;14.8;63.0
53940;BME280;39850;43.324;21.916;2022-09-21T14:10:37;994.0;;;14.8;63.0
53940;BME280;39850;43.324;21.916;2022-09-21T14:15:39;994.0;;;14.5;63.0
53940;BME280;39850;43.324;21.916;2022-09-21T14:20:33;994.0;;;14.5;63.0
53940;BME280;39850;43.324;21.916;2022-09-21T14:27:41;994.0;;;14.8;63.0
53940;BME280;39850;43.324;21.916;2022-09-21T14:32:28;994.0;;;14.5;63.0
53940;BME280;39850;43.324;21.916;2022-09-21T14:37:38;994.0;;;14.5;63.0
53940;BME280;39850;43.324;21.916;2022-09-21T15:15:41;994.0;;;12.6;67.0
53940;BME280;39850;43.324;21.916;2022-09-21T15:20:24;994.0;;;12.6;67.0
53940;BME280;39850;43.324;21.916;2022-09-21T15:25:13;994.0;;;12.8;68.0
53940;BME280;39850;43.324;21.916;2022-09-21T15:29:55;994.0;;;12.8;68.0
53940;BME280;39850;43.324;21.916;2022-09-21T15:34:32;994.0;;;12.8;68.0
53940;BME280;39850;43.324;21.916;2022-09-21T15:39:30;994.0;;;12.8;68.0
53940;BME280;39850;43.324;21.916;2022-09-21T15:44:23;994.0;;;12.9;70.0
53940;BME280;39850;43.324;21.916;2022-09-21T15:49:17;994.0;;;12.9;70.0
53940;BME280;39850;43.324;21.916;2022-09-21T16:37:29;995.0;;;12.6;71.0
53940;BME280;39850;43.324;21.916;2022-09-21T16:42:09;995.0;;;12.6;71.0
53940;BME280;39850;43.324;21.916;2022-09-21T16:47:00;995.0;;;12.6;72.0
53940;BME280;39850;43.324;21.916;2022-09-21T16:51:38;995.0;;;12.6;72.0
53940;BME280;39850;43.324;21.916;2022-09-21T16:56:16;995.0;;;12.6;73.0
53940;BME280;39850;43.324;21.916;2022-09-21T17:00:54;995.0;;;12.6;73.0
53940;BME280;39850;43.324;21.916;2022-09-21T17:05:31;995.0;;;12.6;73.0
53940;BME280;39850;43.324;21.916;2022-09-21T17:10:17;995.0;;;12.6;73.0
53940;BME280;39850;43.324;21.916;2022-09-21T17:14:55;995.0;;;12.7;74.0
53940;BME280;39850;43.324;21.916;2022-09-21T17:19:34;995.0;;;12.7;74.0
53940;BME280;39850;43.324;21.916;2022-09-21T17:57:46;995.0;;;11.3;79.0
53940;BME280;39850;43.324;21.916;2022-09-21T18:02:27;995.0;;;11.3;79.0
53940;BME280;39850;43.324;21.916;2022-09-21T18:07:07;996.0;;;11.0;80.0
53940;BME280;39850;43.324;21.916;2022-09-21T18:12:52;996.0;;;10.7;80.0
53940;BME280;39850;43.324;21.916;2022-09-21T18:18:19;996.0;;;10.7;80.0
53940;BME280;39850;43.324;21.916;2022-09-21T18:23:46;996.0;;;10.7;81.0
53940;BME280;39850;43.324;21.916;2022-09-21T18:28:51;996.0;;;10.7;81.0
53940;BME280;39850;43.324;21.916;2022-09-21T18:34:22;996.0;;;10.7;82.0
53940;BME280;39850;43.324;21.916;2022-09-21T18:40:16;996.0;;;10.7;82.0
53940;BME280;39850;43.324;21.916;2022-09-21T19:15:43;996.0;;;10.7;85.0
53940;BME280;39850;43.324;21.916;2022-09-21T19:21:33;996.0;;;10.7;85.0
53940;BME280;39850;43.324;21.916;2022-09-21T19:26:48;996.0;;;10.7;85.0
53940;BME280;39850;43.324;21.916;2022-09-21T19:31:28;996.0;;;10.7;85.0
53940;BME280;39850;43.324;21.916;2022-09-21T19:36:11;996.0;;;10.7;85.0
53940;BME280;39850;43.324;21.916;2022-09-21T19:41:27;996.0;;;10.7;85.0
53940;BME280;39850;43.324;21.916;2022-09-21T19:46:55;996.0;;;10.7;84.0
53940;BME280;39850;43.324;21.916;2022-09-21T19:51:51;996.0;;;10.7;84.0
53940;BME280;39850;43.324;21.916;2022-09-21T19:56:32;996.0;;;10.7;84.0
53940;BME280;39850;43.324;21.916;2022-09-21T20:01:20;996.0;;;10.7;84.0
53940;BME280;39850;43.324;21.916;2022-09-21T20:35:34;996.0;;;11.6;82.0
53940;BME280;39850;43.324;21.916;2022-09-21T20:40:15;996.0;;;11.6;82.0
53940;BME280;39850;43.324;21.916;2022-09-21T20:44:53;996.0;;;11.6;82.0
53940;BME280;39850;43.324;21.916;2022-09-21T20:49:29;996.0;;;11.6;82.0
53940;BME280;39850;43.324;21.916;2022-09-21T20:54:06;996.0;;;11.6;82.0
53940;BME280;39850;43.324;21.916;2022-09-21T20:58:43;996.0;;;11.6;82.0
53940;BME280;39850;43.324;21.916;2022-09-21T21:03:20;996.0;;;11.7;82.0
53940;BME280;39850;43.324;21.916;2022-09-21T21:07:57;996.0;;;11.7;82.0
53940;BME280;39850;43.324;21.916;2022-09-21T21:12:34;996.0;;;11.7;82.0
53940;BME280;39850;43.324;21.916;2022-09-21T21:17:12;996.0;;;11.8;82.0
53940;BME280;39850;43.324;21.916;2022-09-21T21:21:49;996.0;;;11.8;82.0
53940;BME280;39850;43.324;21.916;2022-09-21T21:54:06;996.0;;;10.7;84.0
53940;BME280;39850;43.324;21.916;2022-09-21T21:58:44;996.0;;;10.7;84.0
53940;BME280;39850;43.324;21.916;2022-09-21T22:03:21;996.0;;;10.7;84.0
53940;BME280;39850;43.324;21.916;2022-09-21T22:07:58;996.0;;;10.7;85.0
53940;BME280;39850;43.324;21.916;2022-09-21T22:12:35;996.0;;;10.7;85.0
53940;BME280;39850;43.324;21.916;2022-09-21T22:17:12;996.0;;;10.7;86.0
53940;BME280;39850;43.324;21.916;2022-09-21T22:21:49;996.0;;;10.7;86.0
53940;BME280;39850;43.324;21.916;2022-09-21T22:26:30;996.0;;;10.7;86.0
53940;BME280;39850;43.324;21.916;2022-09-21T22:31:11;996.0;;;10.7;86.0
53940;BME280;39850;43.324;21.916;2022-09-21T22:35:48;996.0;;;10.7;86.0
53940;BME280;39850;43.324;21.916;2022-09-21T22:40:24;996.0;;;10.7;86.0
53940;BME280;39850;43.324;21.916;2022-09-21T23:17:31;996.0;;;10.9;84.0
53940;BME280;39850;43.324;21.916;2022-09-21T23:22:07;996.0;;;10.9;84.0
53940;BME280;39850;43.324;21.916;2022-09-21T23:26:47;996.0;;;10.8;84.0
53940;BME280;39850;43.324;21.916;2022-09-21T23:31:29;996.0;;;10.8;84.0
53940;BME280;39850;43.324;21.916;2022-09-21T23:36:18;996.0;;;10.7;85.0
53940;BME280;39850;43.324;21.916;2022-09-21T23:41:13;996.0;;;10.7;85.0
53940;BME280;39850;43.324;21.916;2022-09-21T23:45:50;996.0;;;10.7;85.0
53940;BME280;39850;43.324;21.916;2022-09-21T23:50:27;996.0;;;10.7;85.0
53940;BME280;39850;43.324;21.916;2022-09-21T23:55:06;996.0;;;10.7;85.0
53940;BME280;39850;43.324;21.916;2022-09-21T23:59:44;996.0;;;10.7;85.0
